Time;durP1;ratioP1;P1;durP2;ratioP2;P2;SDS_P1;SDS_P2;PMS_P1;PMS_P2;Temp;Humidity;BMP_temperature;BMP_pressure;BME280_temperature;BME280_humidity;BME280_pressure;Samples;Min_cycle;Max_cycle;Signal;HPM_P1;HPM_P2
2023/04/26 00:00:32;;;;;;;7.43;2.50;;;4.30;99.90;;;;;;4974419;28;20027;-79
2023/04/26 00:02:59;;;;;;;6.00;2.35;;;4.30;1.00;;;;;;4967019;28;20500;-78
2023/04/26 00:05:25;;;;;;;5.47;2.35;;;4.20;1.00;;;;;;4974115;28;20034;-78
2023/04/26 00:07:52;;;;;;;8.45;2.90;;;4.10;1.00;;;;;;4974171;28;20035;-78
2023/04/26 00:10:18;;;;;;;5.05;2.42;;;4.20;1.00;;;;;;4965793;28;20034;-78
2023/04/26 00:12:44;;;;;;;5.85;2.47;;;4.30;1.00;;;;;;4974762;28;20042;-78
2023/04/26 00:15:11;;;;;;;5.55;3.50;;;4.30;1.00;;;;;;4973549;28;20388;-79
2023/04/26 00:17:37;;;;;;;5.75;2.75;;;4.30;1.00;;;;;;4985397;28;20030;-78
2023/04/26 00:20:06;;;;;;;10.50;3.15;;;4.10;99.90;;;;;;4978818;28;20057;-80
2023/04/26 00:22:32;;;;;;;5.10;2.83;;;4.10;99.90;;;;;;4975534;28;20065;-78
2023/04/26 00:24:58;;;;;;;5.10;3.15;;;4.00;99.90;;;;;;4969164;28;20066;-78
2023/04/26 00:27:27;;;;;;;6.45;3.10;;;3.90;99.90;;;;;;4976187;28;20035;-79
2023/04/26 00:29:54;;;;;;;12.43;3.13;;;3.70;1.00;;;;;;4955823;28;20490;-78
2023/04/26 00:32:20;;;;;;;6.88;3.83;;;3.60;1.00;;;;;;4960273;28;20057;-79
2023/04/26 00:34:46;;;;;;;9.68;3.05;;;3.50;1.00;;;;;;4978367;28;20042;-79
2023/04/26 00:37:13;;;;;;;4.43;2.83;;;3.40;1.00;;;;;;4977792;28;20440;-79
2023/04/26 00:39:39;;;;;;;7.15;3.00;;;3.30;1.00;;;;;;4983444;28;20041;-78
2023/04/26 00:42:05;;;;;;;10.13;3.92;;;3.30;1.00;;;;;;4966573;28;20456;-78
2023/04/26 00:44:31;;;;;;;6.47;3.20;;;3.30;1.00;;;;;;4978879;28;20553;-78
2023/04/26 00:46:57;;;;;;;8.00;3.42;;;3.20;1.00;;;;;;4978553;28;20038;-79
2023/04/26 00:49:27;;;;;;;5.88;2.90;;;3.20;1.00;;;;;;4977336;28;20038;-79
2023/04/26 00:51:54;;;;;;;8.50;2.97;;;3.10;1.00;;;;;;4976366;28;20027;-79
2023/04/26 00:54:20;;;;;;;6.97;2.55;;;2.90;1.00;;;;;;4959054;28;20684;-78
2023/04/26 00:56:47;;;;;;;6.10;3.45;;;2.80;1.00;;;;;;4966363;28;20519;-79
2023/04/26 00:59:13;;;;;;;8.90;3.45;;;2.80;1.00;;;;;;4979464;28;20053;-79
2023/04/26 01:01:41;;;;;;;9.25;3.38;;;2.80;1.00;;;;;;4983632;28;20038;-79
2023/04/26 01:04:07;;;;;;;7.45;3.40;;;2.80;1.00;;;;;;4962862;28;20027;-79
2023/04/26 01:06:34;;;;;;;7.13;2.88;;;2.80;1.00;;;;;;4965124;28;20515;-79
2023/04/26 01:09:03;;;;;;;7.47;3.38;;;2.70;1.00;;;;;;4978650;28;20384;-79
2023/04/26 01:11:31;;;;;;;5.88;3.40;;;2.50;1.00;;;;;;4967258;28;20038;-79
2023/04/26 01:13:57;;;;;;;8.70;3.17;;;2.40;1.00;;;;;;4965962;28;20051;-79
2023/04/26 01:16:24;;;;;;;7.75;3.53;;;2.30;1.00;;;;;;4958836;28;20050;-78
2023/04/26 01:18:53;;;;;;;8.18;3.78;;;2.20;1.00;;;;;;4976995;28;20031;-79
2023/04/26 01:21:23;;;;;;;8.90;3.63;;;2.20;1.00;;;;;;4970068;28;20039;-78
2023/04/26 01:23:50;;;;;;;10.07;3.75;;;2.20;1.00;;;;;;4953105;28;20035;-78
2023/04/26 01:26:17;;;;;;;7.50;3.83;;;2.00;1.00;;;;;;4974756;28;20031;-79
2023/04/26 01:28:45;;;;;;;6.47;3.30;;;2.00;1.00;;;;;;4975584;28;20468;-79
2023/04/26 01:31:11;;;;;;;12.55;3.60;;;2.00;1.00;;;;;;4955873;28;20053;-79
2023/04/26 01:33:38;;;;;;;7.38;3.35;;;2.00;1.00;;;;;;4951811;28;20035;-79
2023/04/26 01:36:10;;;;;;;7.88;3.75;;;1.90;1.00;;;;;;4958839;28;20043;-78
2023/04/26 01:38:36;;;;;;;8.75;3.42;;;1.90;1.00;;;;;;4977136;28;20039;-78
2023/04/26 01:41:03;;;;;;;6.32;3.22;;;1.80;1.00;;;;;;4976318;28;20045;-81
2023/04/26 01:43:31;;;;;;;4.95;2.75;;;1.70;1.00;;;;;;4946800;28;20043;-78
2023/04/26 01:45:57;;;;;;;8.35;2.72;;;1.70;1.00;;;;;;4959203;28;20046;-78
2023/04/26 01:48:30;;;;;;;6.00;3.13;;;1.60;1.00;;;;;;4977072;28;20034;-78
2023/04/26 01:50:56;;;;;;;6.07;3.05;;;1.60;1.00;;;;;;4976077;28;20358;-79
2023/04/26 01:53:22;;;;;;;7.65;3.35;;;1.50;1.00;;;;;;4976331;28;20058;-79
2023/04/26 01:55:50;;;;;;;7.80;3.70;;;1.40;1.00;;;;;;4979278;28;20039;-79
2023/04/26 01:58:16;;;;;;;8.20;3.30;;;1.40;1.00;;;;;;4966619;28;20066;-79
2023/04/26 02:00:43;;;;;;;4.70;2.83;;;1.40;1.00;;;;;;4941414;29;20047;-78
2023/04/26 02:03:10;;;;;;;7.00;3.67;;;1.40;1.00;;;;;;4941437;29;20035;-78
2023/04/26 02:05:36;;;;;;;7.38;3.35;;;1.40;1.00;;;;;;4936661;29;20050;-78
2023/04/26 02:08:05;;;;;;;7.50;3.63;;;1.40;1.00;;;;;;4939075;29;20054;-80
2023/04/26 02:10:31;;;;;;;8.45;4.75;;;1.50;1.00;;;;;;4942026;29;20043;-78
2023/04/26 02:12:57;;;;;;;10.07;3.58;;;1.30;1.00;;;;;;4917264;29;20150;-78
2023/04/26 02:15:23;;;;;;;7.47;3.53;;;1.20;1.00;;;;;;4961267;28;20043;-78
2023/04/26 02:17:49;;;;;;;6.55;3.03;;;1.10;1.00;;;;;;4958612;28;20392;-79
2023/04/26 02:20:16;;;;;;;6.57;3.13;;;1.00;1.00;;;;;;4940315;29;20404;-79
2023/04/26 02:22:42;;;;;;;7.40;2.70;;;0.90;1.00;;;;;;4939151;29;20454;-79
2023/04/26 02:25:08;;;;;;;6.75;3.58;;;0.90;1.00;;;;;;4956814;28;20356;-79
2023/04/26 02:27:34;;;;;;;5.28;3.35;;;0.80;1.00;;;;;;4949150;28;20053;-79
2023/04/26 02:30:01;;;;;;;7.22;3.30;;;0.70;1.00;;;;;;4950031;28;20403;-79
2023/04/26 02:32:27;;;;;;;7.60;3.88;;;0.90;1.00;;;;;;4942190;28;20062;-79
2023/04/26 02:34:53;;;;;;;7.53;3.22;;;1.00;1.00;;;;;;4950925;28;20832;-80
2023/04/26 02:37:20;;;;;;;6.75;3.30;;;0.90;1.00;;;;;;4945716;28;20046;-79
2023/04/26 02:39:50;;;;;;;8.55;3.85;;;0.70;1.00;;;;;;4935474;28;20043;-80
2023/04/26 02:42:17;;;;;;;9.35;3.80;;;0.80;1.00;;;;;;4960639;28;20031;-79
2023/04/26 02:44:43;;;;;;;10.60;4.00;;;1.00;1.00;;;;;;4957177;28;20039;-79
2023/04/26 02:47:10;;;;;;;7.82;4.45;;;0.90;1.00;;;;;;4940704;29;20480;-80
2023/04/26 02:49:36;;;;;;;8.05;4.30;;;0.90;1.00;;;;;;4937501;29;20047;-79
2023/04/26 02:52:02;;;;;;;8.00;3.70;;;0.80;1.00;;;;;;4946541;28;20043;-79
2023/04/26 02:54:31;;;;;;;7.85;3.50;;;0.70;1.00;;;;;;4955117;28;20047;-79
2023/04/26 02:56:57;;;;;;;9.23;3.92;;;0.70;1.00;;;;;;4941445;28;20349;-78
2023/04/26 02:59:24;;;;;;;7.75;3.55;;;0.60;1.00;;;;;;4963345;28;20057;-78
2023/04/26 03:01:51;;;;;;;7.93;3.67;;;0.50;1.00;;;;;;4962618;28;20065;-78
2023/04/26 03:04:17;;;;;;;11.00;5.22;;;0.60;1.00;;;;;;4956597;28;20046;-79
2023/04/26 03:06:44;;;;;;;11.88;4.22;;;0.60;1.00;;;;;;4958886;28;20047;-78
2023/04/26 03:09:10;;;;;;;6.88;4.18;;;0.70;1.00;;;;;;4954508;28;20045;-79
2023/04/26 03:11:36;;;;;;;7.63;4.40;;;0.70;1.00;;;;;;4962817;28;20039;-79
2023/04/26 03:14:03;;;;;;;8.55;4.00;;;0.60;1.00;;;;;;4958637;28;20042;-80
2023/04/26 03:16:30;;;;;;;7.43;3.30;;;0.60;1.00;;;;;;4962960;28;20050;-80
2023/04/26 03:18:56;;;;;;;8.20;3.75;;;0.50;1.00;;;;;;4953867;28;20035;-79
2023/04/26 03:21:23;;;;;;;9.02;4.03;;;0.20;1.00;;;;;;4961322;28;20042;-79
2023/04/26 03:23:50;;;;;;;11.82;3.88;;;0.10;1.00;;;;;;4941847;28;20043;-80
2023/04/26 03:26:16;;;;;;;8.52;3.25;;;0.10;1.00;;;;;;4956437;28;20051;-79
2023/04/26 03:28:42;;;;;;;9.98;4.60;;;0.00;1.00;;;;;;4973815;28;20035;-79
2023/04/26 03:31:08;;;;;;;11.02;3.72;;;-0.10;1.00;;;;;;4942252;28;20049;-81
2023/04/26 03:33:35;;;;;;;7.40;3.50;;;-0.10;1.00;;;;;;4960780;28;20392;-80
2023/04/26 03:36:01;;;;;;;7.28;3.65;;;-0.10;1.00;;;;;;4977140;28;20042;-79
2023/04/26 03:38:27;;;;;;;5.65;3.55;;;-0.10;1.00;;;;;;4962917;28;20042;-79
2023/04/26 03:40:54;;;;;;;5.75;3.70;;;-0.10;1.00;;;;;;4965358;28;20046;-79
2023/04/26 03:43:20;;;;;;;7.35;4.13;;;-0.10;1.00;;;;;;4941194;28;20038;-79
2023/04/26 03:45:48;;;;;;;6.43;3.88;;;-0.10;1.00;;;;;;4955673;28;20070;-79
2023/04/26 03:48:15;;;;;;;18.80;5.18;;;-0.20;1.00;;;;;;4959884;28;20034;-79
2023/04/26 03:50:43;;;;;;;11.57;5.20;;;-0.10;1.00;;;;;;4957477;28;20391;-79
2023/04/26 03:53:10;;;;;;;9.68;4.68;;;-0.20;1.00;;;;;;4946619;28;20403;-81
2023/04/26 03:55:37;;;;;;;9.20;5.03;;;-0.10;1.00;;;;;;4958521;28;20479;-79
2023/04/26 03:58:06;;;;;;;9.32;4.95;;;-0.10;1.00;;;;;;4955939;28;20047;-78
2023/04/26 04:00:37;;;;;;;12.52;5.80;;;0.20;1.00;;;;;;4964598;28;20051;-79
2023/04/26 04:03:04;;;;;;;14.00;8.25;;;0.40;1.00;;;;;;4954017;28;20046;-79
2023/04/26 04:05:31;;;;;;;12.15;6.40;;;0.50;1.00;;;;;;4967099;28;20054;-79
2023/04/26 04:07:58;;;;;;;9.77;4.63;;;0.40;1.00;;;;;;4944110;28;20146;-79
2023/04/26 04:10:24;;;;;;;8.90;4.15;;;0.30;1.00;;;;;;4962493;28;20045;-79
2023/04/26 04:12:52;;;;;;;6.65;3.20;;;0.10;1.00;;;;;;4957800;28;20321;-79
2023/04/26 04:15:19;;;;;;;9.52;3.90;;;0.00;1.00;;;;;;4944350;28;20057;-79
2023/04/26 04:17:47;;;;;;;10.20;3.78;;;-0.10;1.00;;;;;;4961299;28;20391;-78
2023/04/26 04:20:13;;;;;;;8.40;6.25;;;-0.20;1.00;;;;;;4959492;28;20050;-80
2023/04/26 04:22:40;;;;;;;10.40;6.78;;;0.00;1.00;;;;;;4950970;28;20042;-78
2023/04/26 04:25:10;;;;;;;8.73;5.88;;;0.10;1.00;;;;;;4941706;28;20532;-78
2023/04/26 04:27:41;;;;;;;8.73;4.10;;;0.20;1.00;;;;;;4956800;28;20050;-78
2023/04/26 04:30:08;;;;;;;10.68;5.25;;;0.10;1.00;;;;;;4955700;28;20046;-78
2023/04/26 04:32:35;;;;;;;15.23;7.07;;;0.30;1.00;;;;;;4955205;28;20046;-78
2023/04/26 04:35:02;;;;;;;7.15;4.78;;;0.50;1.00;;;;;;4964668;28;20039;-78
2023/04/26 04:37:28;;;;;;;8.48;4.32;;;0.50;1.00;;;;;;4958107;28;20035;-78
2023/04/26 04:39:54;;;;;;;8.45;4.72;;;0.60;1.00;;;;;;4946014;28;20043;-79
2023/04/26 04:42:21;;;;;;;11.07;4.43;;;0.50;1.00;;;;;;4971557;28;20046;-79
2023/04/26 04:44:49;;;;;;;8.57;5.07;;;0.70;1.00;;;;;;4962119;28;20050;-76
2023/04/26 04:47:16;;;;;;;9.25;4.22;;;0.90;1.00;;;;;;4952700;28;20062;-77
2023/04/26 04:49:43;;;;;;;7.40;4.07;;;0.80;1.00;;;;;;4949392;28;20400;-77
2023/04/26 04:52:09;;;;;;;9.88;4.55;;;0.80;1.00;;;;;;4956945;28;20053;-79
2023/04/26 04:54:35;;;;;;;8.68;4.28;;;0.80;1.00;;;;;;4946000;28;20038;-78
2023/04/26 04:57:02;;;;;;;8.05;4.22;;;1.10;1.00;;;;;;4970743;28;20047;-78
2023/04/26 04:59:29;;;;;;;8.02;3.45;;;1.70;1.00;;;;;;4948429;28;20050;-78
2023/04/26 05:01:55;;;;;;;10.98;4.50;;;2.30;1.00;;;;;;4962494;28;20051;-78
2023/04/26 05:04:22;;;;;;;8.45;4.00;;;2.80;99.90;;;;;;4960128;28;20050;-78
2023/04/26 05:06:48;;;;;;;9.30;5.47;;;3.10;99.90;;;;;;4978411;28;20039;-77
2023/04/26 05:09:14;;;;;;;16.75;14.55;;;3.60;99.90;;;;;;4980585;28;20041;-78
2023/04/26 05:11:41;;;;;;;7.55;3.95;;;4.00;99.90;;;;;;4951691;28;20042;-78
2023/04/26 05:14:08;;;;;;;8.00;3.85;;;4.60;99.90;;;;;;4958196;28;20042;-79
2023/04/26 05:16:37;;;;;;;4.07;2.63;;;5.10;99.90;;;;;;4978180;28;20027;-78
2023/04/26 05:19:03;;;;;;;7.40;2.83;;;5.60;96.90;;;;;;4964366;28;20480;-79
2023/04/26 05:21:30;;;;;;;5.15;2.70;;;5.80;65.40;;;;;;4942886;28;20388;-77
2023/04/26 05:23:56;;;;;;;7.28;3.00;;;5.50;64.50;;;;;;4958827;28;20392;-78
2023/04/26 05:26:22;;;;;;;5.07;2.70;;;5.50;80.50;;;;;;4961680;28;20058;-77
2023/04/26 05:28:58;;;;;;;6.45;2.60;;;6.20;59.90;;;;;;4950533;28;20042;-77
2023/04/26 05:31:50;;;;;;;4.07;2.60;;;7.40;7.10;;;;;;4960789;28;20062;-78
2023/04/26 05:34:36;;;;;;;7.45;2.58;;;8.10;1.00;;;;;;4976289;28;20039;-77
2023/04/26 05:37:02;;;;;;;5.57;2.72;;;8.50;1.00;;;;;;4965498;28;20053;-77
2023/04/26 05:39:28;;;;;;;6.65;2.85;;;8.70;1.00;;;;;;4959257;28;20054;-77
2023/04/26 05:41:55;;;;;;;5.93;2.50;;;8.80;1.00;;;;;;4957663;28;20038;-78
2023/04/26 05:44:21;;;;;;;5.18;2.53;;;8.80;1.00;;;;;;4962604;28;20046;-77
2023/04/26 05:46:48;;;;;;;6.72;2.63;;;9.00;1.00;;;;;;4944296;28;20376;-77
2023/04/26 05:49:14;;;;;;;6.50;2.40;;;9.80;1.00;;;;;;4951615;28;20053;-80
2023/04/26 05:51:41;;;;;;;4.65;2.60;;;9.70;1.00;;;;;;4967316;28;20406;-77
2023/04/26 05:54:07;;;;;;;8.38;2.80;;;9.50;1.00;;;;;;4964070;28;20039;-77
2023/04/26 05:56:33;;;;;;;9.75;3.55;;;9.40;1.00;;;;;;4959907;28;20047;-77
2023/04/26 05:58:59;;;;;;;6.70;2.72;;;8.70;1.00;;;;;;4962344;28;20066;-77
2023/04/26 06:01:26;;;;;;;6.53;2.95;;;8.20;1.00;;;;;;4959982;28;20465;-78
2023/04/26 06:03:52;;;;;;;8.18;3.38;;;8.00;1.00;;;;;;4938071;28;20062;-76
2023/04/26 06:06:22;;;;;;;7.82;2.58;;;7.90;1.00;;;;;;4955787;28;20058;-76
2023/04/26 06:08:48;;;;;;;5.93;3.05;;;7.90;1.00;;;;;;4944529;28;20043;-77
2023/04/26 06:11:14;;;;;;;5.45;2.85;;;7.80;1.00;;;;;;4956880;28;20036;-76
2023/04/26 06:13:42;;;;;;;4.65;2.67;;;7.80;1.00;;;;;;4947038;28;20046;-78
2023/04/26 06:16:09;;;;;;;5.97;3.13;;;8.30;1.00;;;;;;4947215;28;20053;-79
2023/04/26 06:18:35;;;;;;;6.13;2.75;;;8.80;1.00;;;;;;4940586;28;20664;-79
2023/04/26 06:21:02;;;;;;;8.05;3.05;;;8.80;1.00;;;;;;4944891;28;20054;-77
2023/04/26 06:23:28;;;;;;;6.93;2.95;;;9.40;1.00;;;;;;4938711;29;20048;-78
2023/04/26 06:25:54;;;;;;;9.38;3.25;;;10.30;1.00;;;;;;4941661;28;20055;-78
2023/04/26 06:28:20;;;;;;;6.35;2.70;;;10.70;1.00;;;;;;4958857;28;20035;-78
2023/04/26 06:30:47;;;;;;;10.25;3.42;;;10.30;1.00;;;;;;4941417;28;20043;-77
2023/04/26 06:33:14;;;;;;;8.55;3.33;;;10.60;1.00;;;;;;4932189;28;20050;-77
2023/04/26 06:35:41;;;;;;;6.18;2.47;;;10.90;1.00;;;;;;4940291;28;20043;-77
2023/04/26 06:38:08;;;;;;;5.22;2.67;;;10.30;1.00;;;;;;4941724;28;20046;-77
2023/04/26 06:40:38;;;;;;;7.85;2.10;;;10.40;1.00;;;;;;4942720;29;20039;-78
2023/04/26 06:43:04;;;;;;;5.80;2.42;;;11.80;1.00;;;;;;4922884;28;20054;-78
2023/04/26 06:45:43;;;;;;;6.85;3.10;;;12.90;1.00;;;;;;4943452;28;20449;-77
2023/04/26 06:48:10;;;;;;;3.88;2.38;;;11.80;1.00;;;;;;4951730;28;20043;-76
2023/04/26 06:50:40;;;;;;;5.70;2.67;;;12.30;1.00;;;;;;4956824;28;20598;-77
2023/04/26 06:53:07;;;;;;;6.53;2.50;;;12.10;1.00;;;;;;4947730;28;20038;-77
2023/04/26 06:55:33;;;;;;;5.22;2.60;;;12.50;1.00;;;;;;4954927;28;20042;-77
2023/04/26 06:58:00;;;;;;;7.35;2.65;;;13.60;1.00;;;;;;4966494;28;20416;-79
2023/04/26 07:00:26;;;;;;;5.78;3.03;;;14.40;1.00;;;;;;4973215;28;20038;-78
2023/04/26 07:02:53;;;;;;;6.40;3.08;;;14.40;1.00;;;;;;4954113;28;20051;-78
2023/04/26 07:05:19;;;;;;;7.90;3.05;;;14.40;1.00;;;;;;4954778;28;20050;-79
2023/04/26 07:07:45;;;;;;;8.70;2.75;;;13.40;1.00;;;;;;4975651;28;20049;-77
2023/04/26 07:10:12;;;;;;;7.15;2.65;;;12.80;1.00;;;;;;4976529;28;20047;-78
2023/04/26 07:12:38;;;;;;;11.82;3.05;;;11.20;1.00;;;;;;4973523;28;20298;-78
2023/04/26 07:15:05;;;;;;;8.73;5.90;;;11.30;1.00;;;;;;4974899;28;20038;-78
2023/04/26 07:17:32;;;;;;;6.40;3.55;;;12.50;1.00;;;;;;4959932;28;20046;-78
2023/04/26 07:19:58;;;;;;;7.20;3.00;;;12.50;1.00;;;;;;4941953;28;20053;-78
2023/04/26 07:22:24;;;;;;;6.90;2.95;;;14.30;1.00;;;;;;4955622;28;20051;-78
2023/04/26 07:24:50;;;;;;;5.10;2.55;;;14.70;1.00;;;;;;4981295;28;20030;-78
2023/04/26 07:27:16;;;;;;;7.38;2.72;;;14.30;1.00;;;;;;4982963;28;20046;-77
2023/04/26 07:29:42;;;;;;;7.30;2.88;;;15.50;1.00;;;;;;4981361;28;20391;-78
2023/04/26 07:32:09;;;;;;;6.88;2.75;;;16.60;1.00;;;;;;4982251;28;20411;-77
2023/04/26 07:34:35;;;;;;;6.47;2.83;;;16.60;1.00;;;;;;4973526;28;20030;-77
2023/04/26 07:37:01;;;;;;;8.15;2.67;;;16.90;1.00;;;;;;4958173;28;20039;-78
2023/04/26 07:39:27;;;;;;;6.57;2.50;;;16.00;1.00;;;;;;4973071;28;20050;-77
2023/04/26 07:41:54;;;;;;;6.47;2.78;;;15.30;1.00;;;;;;4983123;28;20034;-78
2023/04/26 07:44:21;;;;;;;4.97;2.45;;;14.30;1.00;;;;;;4973169;28;20041;-78
2023/04/26 07:46:47;;;;;;;6.80;2.55;;;14.30;1.00;;;;;;4974484;28;20046;-77
2023/04/26 07:49:13;;;;;;;7.15;3.03;;;15.10;1.00;;;;;;4957403;28;20452;-77
2023/04/26 07:51:43;;;;;;;4.57;2.20;;;15.70;1.00;;;;;;4955908;28;20736;-78
2023/04/26 07:54:10;;;;;;;6.55;2.65;;;15.20;1.00;;;;;;4950718;28;20042;-77
2023/04/26 07:56:36;;;;;;;7.68;3.15;;;12.70;1.00;;;;;;4972089;28;20050;-77
2023/04/26 07:59:03;;;;;;;6.65;2.47;;;12.20;1.00;;;;;;4980837;28;20051;-78
2023/04/26 08:01:29;;;;;;;5.10;2.00;;;13.00;1.00;;;;;;4975201;28;20042;-77
2023/04/26 08:03:58;;;;;;;6.10;2.58;;;12.80;1.00;;;;;;4957914;28;20051;-77
2023/04/26 08:06:25;;;;;;;10.15;3.05;;;13.00;1.00;;;;;;4973039;28;20047;-77
2023/04/26 08:08:52;;;;;;;6.72;3.45;;;12.70;1.00;;;;;;4975658;28;20031;-78
2023/04/26 08:11:18;;;;;;;7.57;3.22;;;12.70;1.00;;;;;;4954959;28;20035;-77
2023/04/26 08:13:45;;;;;;;7.30;3.03;;;12.60;1.00;;;;;;4966244;28;20455;-77
2023/04/26 08:16:11;;;;;;;6.47;2.88;;;11.50;1.00;;;;;;4957822;28;20049;-77
2023/04/26 08:18:37;;;;;;;6.35;3.17;;;12.00;1.00;;;;;;4966463;28;20035;-77
2023/04/26 08:21:03;;;;;;;10.75;3.38;;;12.80;1.00;;;;;;4972385;28;20031;-77
2023/04/26 08:23:37;;;;;;;7.50;3.67;;;12.10;1.00;;;;;;4974917;28;20038;-78
2023/04/26 08:26:03;;;;;;;7.53;3.35;;;11.80;1.00;;;;;;4974197;28;20038;-78
2023/04/26 08:28:29;;;;;;;8.80;3.70;;;11.50;1.00;;;;;;4961454;28;20039;-78
2023/04/26 08:30:56;;;;;;;8.10;3.22;;;11.40;1.00;;;;;;4961832;28;20480;-78
2023/04/26 08:33:23;;;;;;;8.68;3.58;;;11.60;1.00;;;;;;4971995;28;20039;-78
2023/04/26 08:35:49;;;;;;;6.38;2.85;;;11.50;1.00;;;;;;4975713;28;20468;-78
2023/04/26 08:38:15;;;;;;;8.60;3.45;;;13.10;1.00;;;;;;4980404;28;20452;-79
2023/04/26 08:40:45;;;;;;;6.97;2.95;;;14.50;1.00;;;;;;4974939;28;20309;-80
2023/04/26 08:43:15;;;;;;;8.68;3.67;;;13.60;1.00;;;;;;4961802;28;20041;-77
2023/04/26 08:45:45;;;;;;;8.15;3.53;;;13.10;1.00;;;;;;4977891;28;20245;-78
2023/04/26 08:48:16;;;;;;;6.97;3.23;;;12.60;1.00;;;;;;4972942;28;20030;-78
2023/04/26 08:50:45;;;;;;;9.95;3.28;;;12.70;1.00;;;;;;4974492;28;20039;-78
2023/04/26 08:53:16;;;;;;;10.00;3.92;;;12.30;1.00;;;;;;4959316;28;20035;-78
2023/04/26 08:55:49;;;;;;;7.25;2.78;;;11.90;1.00;;;;;;4977009;28;20027;-78
2023/04/26 08:58:18;;;;;;;4.78;2.70;;;12.20;1.00;;;;;;4982723;28;20054;-77
2023/04/26 09:00:45;;;;;;;8.10;3.92;;;12.70;1.00;;;;;;4976277;28;20043;-78
2023/04/26 09:03:11;;;;;;;7.57;3.90;;;12.30;1.00;;;;;;4965038;28;20035;-78
2023/04/26 09:05:44;;;;;;;7.28;3.33;;;11.90;1.00;;;;;;4975236;28;20034;-78
2023/04/26 09:08:16;;;;;;;6.75;3.17;;;13.60;1.00;;;;;;4978947;28;20035;-79
2023/04/26 09:10:43;;;;;;;10.48;3.35;;;14.80;1.00;;;;;;4977141;28;20031;-77
2023/04/26 09:13:10;;;;;;;5.47;2.97;;;13.80;1.00;;;;;;4961471;28;20030;-78
2023/04/26 09:15:36;;;;;;;7.07;2.88;;;13.50;1.00;;;;;;4979133;28;20051;-77
2023/04/26 09:18:22;;;;;;;6.93;2.95;;;14.50;1.00;;;;;;4951727;28;20401;-77
2023/04/26 09:21:02;;;;;;;6.60;2.78;;;14.20;1.00;;;;;;4958113;28;20379;-77
2023/04/26 09:23:29;;;;;;;5.38;2.42;;;13.80;1.00;;;;;;4974055;28;20034;-77
2023/04/26 09:25:55;;;;;;;8.52;3.25;;;14.10;1.00;;;;;;4976932;28;20034;-78
2023/04/26 09:28:23;;;;;;;5.22;3.28;;;14.90;1.00;;;;;;4949719;28;20482;-77
2023/04/26 09:30:50;;;;;;;6.97;3.92;;;15.20;1.00;;;;;;4974200;28;20038;-77
2023/04/26 09:33:16;;;;;;;7.65;3.22;;;15.10;1.00;;;;;;4968177;28;20042;-77
2023/04/26 09:35:43;;;;;;;8.45;3.72;;;14.70;1.00;;;;;;4975236;28;20043;-77
2023/04/26 09:38:11;;;;;;;6.10;3.17;;;14.30;1.00;;;;;;4961464;28;20043;-78
2023/04/26 09:40:43;;;;;;;6.88;3.17;;;14.00;1.00;;;;;;4962711;28;20039;-78
2023/04/26 09:43:11;;;;;;;7.80;3.45;;;15.00;1.00;;;;;;4977077;28;20038;-78
2023/04/26 09:45:48;;;;;;;7.72;3.42;;;14.90;1.00;;;;;;4962143;28;20038;-78
2023/04/26 09:48:25;;;;;;;6.80;3.40;;;14.70;1.00;;;;;;4981036;28;20060;-78
2023/04/26 09:50:53;;;;;;;7.80;3.08;;;15.00;1.00;;;;;;4978197;28;20039;-77
2023/04/26 09:53:45;;;;;;;6.78;3.35;;;14.50;1.00;;;;;;4980887;28;20038;-79
2023/04/26 09:56:12;;;;;;;8.55;4.15;;;14.20;1.00;;;;;;4957837;28;20062;-78
2023/04/26 09:58:57;;;;;;;11.52;4.00;;;13.10;1.00;;;;;;4983155;28;20061;-78
2023/04/26 10:01:25;;;;;;;6.60;3.95;;;12.90;1.00;;;;;;4955521;28;20044;-78
2023/04/26 10:03:51;;;;;;;7.93;4.35;;;13.40;1.00;;;;;;4962908;28;20042;-80
2023/04/26 10:06:18;;;;;;;7.50;4.13;;;12.80;1.00;;;;;;4977469;28;20039;-79
2023/04/26 10:08:44;;;;;;;9.45;4.50;;;12.40;1.00;;;;;;4979973;28;20357;-77
2023/04/26 10:11:11;;;;;;;11.88;4.82;;;12.70;1.00;;;;;;4962053;28;20041;-79
2023/04/26 10:13:39;;;;;;;9.93;4.82;;;12.70;1.00;;;;;;4977047;28;20042;-77
2023/04/26 10:16:05;;;;;;;6.38;3.78;;;12.50;1.00;;;;;;4964787;28;20050;-77
2023/04/26 10:18:32;;;;;;;8.23;4.57;;;12.30;1.00;;;;;;4966031;28;20039;-77
2023/04/26 10:21:11;;;;;;;8.48;4.55;;;12.50;1.00;;;;;;4982139;28;20031;-77
2023/04/26 10:23:38;;;;;;;5.40;2.88;;;13.40;1.00;;;;;;4957724;28;20475;-78
2023/04/26 10:26:04;;;;;;;6.88;3.17;;;13.10;1.00;;;;;;4977371;28;20407;-77
2023/04/26 10:28:40;;;;;;;6.85;2.83;;;12.90;1.00;;;;;;4977018;28;20038;-78
2023/04/26 10:31:06;;;;;;;5.60;3.28;;;12.90;1.00;;;;;;4973585;28;20034;-78
2023/04/26 10:33:32;;;;;;;5.53;2.30;;;13.40;1.00;;;;;;4975901;28;20030;-79
2023/04/26 10:36:01;;;;;;;6.22;2.28;;;13.00;1.00;;;;;;4979409;28;20042;-78
2023/04/26 10:38:27;;;;;;;6.78;2.47;;;13.10;1.00;;;;;;4963567;28;20049;-82
2023/04/26 10:40:54;;;;;;;6.65;2.70;;;13.10;1.00;;;;;;4976019;28;20038;-79
2023/04/26 10:43:27;;;;;;;6.07;2.50;;;12.60;1.00;;;;;;4978107;28;20049;-78
2023/04/26 10:45:55;;;;;;;8.63;2.83;;;12.80;1.00;;;;;;4977533;28;20506;-77
2023/04/26 10:48:32;;;;;;;4.75;2.08;;;13.10;1.00;;;;;;4975182;28;20492;-78
2023/04/26 10:50:59;;;;;;;6.97;2.65;;;12.80;1.00;;;;;;4963052;28;20051;-78
2023/04/26 10:53:28;;;;;;;6.07;2.10;;;12.80;1.00;;;;;;4977897;28;20479;-78
2023/04/26 10:55:57;;;;;;;6.57;2.25;;;12.20;1.00;;;;;;4975424;28;20037;-77
2023/04/26 10:58:34;;;;;;;7.50;2.53;;;12.50;1.00;;;;;;4960866;28;20055;-77
2023/04/26 11:01:13;;;;;;;5.82;2.20;;;12.80;1.00;;;;;;4977865;28;20048;-78
2023/04/26 11:04:00;;;;;;;7.43;4.85;;;12.90;1.00;;;;;;4961195;28;20042;-79
2023/04/26 11:06:47;;;;;;;3.78;1.92;;;12.70;1.00;;;;;;4975072;28;20047;-77
2023/04/26 11:09:33;;;;;;;5.38;2.08;;;12.80;1.00;;;;;;4955898;28;20469;-76
2023/04/26 11:11:59;;;;;;;3.13;1.70;;;12.40;1.00;;;;;;4952073;28;20031;-77
2023/04/26 11:14:26;;;;;;;4.07;1.67;;;12.60;1.00;;;;;;4974477;28;20042;-76
2023/04/26 11:16:52;;;;;;;5.70;1.75;;;13.10;1.00;;;;;;4977212;28;20043;-78
2023/04/26 11:19:18;;;;;;;5.20;1.70;;;13.90;1.00;;;;;;4991323;28;20039;-78
2023/04/26 11:21:44;;;;;;;6.90;2.08;;;14.00;1.00;;;;;;4966323;28;20034;-77
2023/04/26 11:24:14;;;;;;;3.72;1.85;;;14.20;1.00;;;;;;4980274;28;20423;-78
2023/04/26 11:26:40;;;;;;;5.07;2.20;;;14.10;1.00;;;;;;4995765;28;20038;-77
2023/04/26 11:29:09;;;;;;;7.30;2.33;;;13.70;1.00;;;;;;4978414;28;20475;-79
2023/04/26 11:31:36;;;;;;;4.93;2.08;;;13.20;1.00;;;;;;4977820;28;20055;-78
2023/04/26 11:34:08;;;;;;;4.38;2.10;;;13.20;1.00;;;;;;4994286;28;20026;-79
2023/04/26 11:36:36;;;;;;;5.47;2.40;;;13.30;1.00;;;;;;4981483;28;20059;-79
2023/04/26 11:39:03;;;;;;;7.15;2.20;;;13.60;1.00;;;;;;4984415;28;20053;-79
2023/04/26 11:41:29;;;;;;;7.57;2.45;;;13.50;1.00;;;;;;4977247;28;20054;-82
2023/04/26 11:43:58;;;;;;;7.60;2.40;;;13.60;1.00;;;;;;4997416;28;20064;-78
2023/04/26 11:46:24;;;;;;;8.45;2.28;;;13.40;1.00;;;;;;4999518;28;20030;-77
2023/04/26 11:48:51;;;;;;;6.68;2.28;;;13.40;1.00;;;;;;4996286;28;20057;-78
2023/04/26 11:51:18;;;;;;;6.75;2.80;;;12.90;1.00;;;;;;4961567;28;20039;-79
2023/04/26 11:53:44;;;;;;;5.25;2.22;;;13.00;1.00;;;;;;4991788;28;20054;-78
2023/04/26 11:56:17;;;;;;;6.63;2.47;;;13.40;1.00;;;;;;4981152;28;20038;-79
2023/04/26 11:58:48;;;;;;;4.88;2.67;;;13.60;1.00;;;;;;4966077;28;20067;-78
2023/04/26 12:01:26;;;;;;;8.35;2.70;;;13.80;1.00;;;;;;4960886;28;20038;-77
2023/04/26 12:03:54;;;;;;;7.78;2.95;;;14.30;1.00;;;;;;4971581;28;20039;-78
2023/04/26 12:06:29;;;;;;;3.95;2.45;;;13.90;1.00;;;;;;4978824;28;20027;-78
2023/04/26 12:08:55;;;;;;;7.60;3.25;;;13.90;1.00;;;;;;4975524;28;20039;-78
2023/04/26 12:11:22;;;;;;;4.72;2.85;;;14.00;1.00;;;;;;4976629;28;20027;-78
2023/04/26 12:13:48;;;;;;;7.38;3.10;;;13.30;1.00;;;;;;4975141;28;20038;-79
2023/04/26 12:16:15;;;;;;;8.88;3.33;;;13.80;1.00;;;;;;4967803;28;20039;-78
2023/04/26 12:18:48;;;;;;;4.95;2.30;;;14.10;1.00;;;;;;4979446;28;20488;-78
2023/04/26 12:21:15;;;;;;;8.02;3.70;;;14.20;1.00;;;;;;4963785;28;20027;-77
2023/04/26 12:23:46;;;;;;;7.40;3.00;;;14.40;1.00;;;;;;4969892;28;20046;-78
2023/04/26 12:26:12;;;;;;;10.07;4.30;;;14.50;1.00;;;;;;4971603;28;20051;-78
2023/04/26 12:28:40;;;;;;;7.70;2.88;;;14.50;1.00;;;;;;4959768;28;20039;-78
2023/04/26 12:31:07;;;;;;;9.02;3.42;;;13.80;1.00;;;;;;4986148;28;20046;-78
2023/04/26 12:33:33;;;;;;;6.10;2.88;;;13.80;1.00;;;;;;4958325;28;20408;-78
2023/04/26 12:36:10;;;;;;;8.30;3.47;;;13.90;1.00;;;;;;4983088;28;20035;-78
2023/04/26 12:38:37;;;;;;;5.10;2.88;;;13.80;1.00;;;;;;4964902;28;20041;-76
2023/04/26 12:41:04;;;;;;;4.18;2.65;;;14.10;1.00;;;;;;4959572;28;20046;-76
2023/04/26 12:43:30;;;;;;;5.95;2.92;;;14.20;1.00;;;;;;4946242;28;20380;-78
2023/04/26 12:45:56;;;;;;;4.90;2.30;;;13.70;1.00;;;;;;4981988;28;20035;-78
2023/04/26 12:48:23;;;;;;;6.40;3.28;;;14.00;1.00;;;;;;4960533;28;20054;-78
2023/04/26 12:50:49;;;;;;;4.95;2.63;;;14.30;1.00;;;;;;4975811;28;20030;-79
2023/04/26 12:53:15;;;;;;;7.13;2.53;;;14.60;1.00;;;;;;4944006;28;20519;-80
2023/04/26 12:55:41;;;;;;;7.15;3.08;;;14.40;1.00;;;;;;4967087;28;20038;-78
2023/04/26 12:58:07;;;;;;;6.35;2.58;;;14.20;1.00;;;;;;4970236;28;20085;-79
2023/04/26 13:00:33;;;;;;;5.78;2.33;;;14.20;1.00;;;;;;4976781;28;20063;-77
2023/04/26 13:03:00;;;;;;;11.18;3.58;;;14.50;1.00;;;;;;4970176;28;20384;-80